sensor_id;sensor_type;location;lat;lon;timestamp;temperature;humidity
318;DHT22;146;53.448;10.228;2023-02-01T00:01:05;4.40;1.00
318;DHT22;146;53.448;10.228;2023-02-01T00:03:32;4.30;1.00
318;DHT22;146;53.448;10.228;2023-02-01T00:06:00;4.20;1.00
318;DHT22;146;53.448;10.228;2023-02-01T00:08:27;4.10;1.50
318;DHT22;146;53.448;10.228;2023-02-01T00:11:01;4.10;1.70
318;DHT22;146;53.448;10.228;2023-02-01T00:13:31;4.20;1.70
318;DHT22;146;53.448;10.228;2023-02-01T00:16:05;4.10;1.40
318;DHT22;146;53.448;10.228;2023-02-01T00:18:32;4.20;1.00
318;DHT22;146;53.448;10.228;2023-02-01T00:20:59;4.20;1.00
318;DHT22;146;53.448;10.228;2023-02-01T00:23:26;4.30;1.00
318;DHT22;146;53.448;10.228;2023-02-01T00:25:53;4.30;1.00
318;DHT22;146;53.448;10.228;2023-02-01T00:28:20;4.40;1.00
318;DHT22;146;53.448;10.228;2023-02-01T00:30:56;4.40;1.00
318;DHT22;146;53.448;10.228;2023-02-01T00:33:23;4.50;1.00
318;DHT22;146;53.448;10.228;2023-02-01T00:35:49;4.60;1.00
318;DHT22;146;53.448;10.228;2023-02-01T00:38:16;4.60;1.00
318;DHT22;146;53.448;10.228;2023-02-01T00:40:45;4.70;1.00
318;DHT22;146;53.448;10.228;2023-02-01T00:43:12;4.80;1.00
318;DHT22;146;53.448;10.228;2023-02-01T00:45:38;4.80;1.00
318;DHT22;146;53.448;10.228;2023-02-01T00:48:07;4.90;1.00
318;DHT22;146;53.448;10.228;2023-02-01T00:50:33;5.00;1.00
318;DHT22;146;53.448;10.228;2023-02-01T00:53:00;5.00;1.00
318;DHT22;146;53.448;10.228;2023-02-01T00:55:27;5.10;1.00
318;DHT22;146;53.448;10.228;2023-02-01T00:57:54;5.10;1.00
318;DHT22;146;53.448;10.228;2023-02-01T01:00:21;5.20;1.00
318;DHT22;146;53.448;10.228;2023-02-01T01:02:48;5.20;1.00
318;DHT22;146;53.448;10.228;2023-02-01T01:05:16;5.30;1.00
318;DHT22;146;53.448;10.228;2023-02-01T01:07:43;5.30;1.00
318;DHT22;146;53.448;10.228;2023-02-01T01:10:10;5.40;1.00
318;DHT22;146;53.448;10.228;2023-02-01T01:12:37;5.50;1.00
318;DHT22;146;53.448;10.228;2023-02-01T01:15:05;5.40;1.00
318;DHT22;146;53.448;10.228;2023-02-01T01:17:32;5.50;1.00
318;DHT22;146;53.448;10.228;2023-02-01T01:19:59;5.50;1.00
318;DHT22;146;53.448;10.228;2023-02-01T01:22:27;5.40;1.00
318;DHT22;146;53.448;10.228;2023-02-01T01:24:53;5.50;1.00
318;DHT22;146;53.448;10.228;2023-02-01T01:27:20;5.50;1.00
318;DHT22;146;53.448;10.228;2023-02-01T01:29:49;5.50;1.00
318;DHT22;146;53.448;10.228;2023-02-01T01:32:16;5.70;1.00
318;DHT22;146;53.448;10.228;2023-02-01T01:34:43;5.60;1.00
318;DHT22;146;53.448;10.228;2023-02-01T01:37:09;5.70;1.00
318;DHT22;146;53.448;10.228;2023-02-01T01:39:37;5.80;1.00
318;DHT22;146;53.448;10.228;2023-02-01T01:42:04;5.70;1.00
318;DHT22;146;53.448;10.228;2023-02-01T01:44:56;5.70;1.00
318;DHT22;146;53.448;10.228;2023-02-01T01:47:23;5.80;1.00
318;DHT22;146;53.448;10.228;2023-02-01T01:49:50;5.80;1.00
318;DHT22;146;53.448;10.228;2023-02-01T01:52:18;5.70;1.00
318;DHT22;146;53.448;10.228;2023-02-01T01:54:48;5.80;1.00
318;DHT22;146;53.448;10.228;2023-02-01T01:57:18;5.80;1.00
318;DHT22;146;53.448;10.228;2023-02-01T01:59:50;5.80;1.00
318;DHT22;146;53.448;10.228;2023-02-01T02:02:19;5.70;1.00
318;DHT22;146;53.448;10.228;2023-02-01T02:04:46;5.80;1.00
318;DHT22;146;53.448;10.228;2023-02-01T02:07:17;5.80;1.00
318;DHT22;146;53.448;10.228;2023-02-01T02:09:47;5.80;1.00
318;DHT22;146;53.448;10.228;2023-02-01T02:12:14;5.80;1.00
318;DHT22;146;53.448;10.228;2023-02-01T02:14:41;5.80;1.00
318;DHT22;146;53.448;10.228;2023-02-01T02:17:19;5.80;1.00
318;DHT22;146;53.448;10.228;2023-02-01T02:23:01;5.60;1.00
318;DHT22;146;53.448;10.228;2023-02-01T02:34:53;5.60;1.00
318;DHT22;146;53.448;10.228;2023-02-01T02:37:29;5.60;1.00
318;DHT22;146;53.448;10.228;2023-02-01T02:40:05;5.60;1.00
318;DHT22;146;53.448;10.228;2023-02-01T02:42:38;5.70;1.00
318;DHT22;146;53.448;10.228;2023-02-01T02:45:28;5.70;1.00
318;DHT22;146;53.448;10.228;2023-02-01T02:48:20;5.60;1.00
318;DHT22;146;53.448;10.228;2023-02-01T02:50:57;5.60;1.00
318;DHT22;146;53.448;10.228;2023-02-01T02:53:49;5.60;1.00
318;DHT22;146;53.448;10.228;2023-02-01T02:56:35;5.60;1.00
318;DHT22;146;53.448;10.228;2023-02-01T02:59:22;5.60;1.00
318;DHT22;146;53.448;10.228;2023-02-01T03:02:08;5.60;1.00
318;DHT22;146;53.448;10.228;2023-02-01T03:04:53;5.50;1.00
318;DHT22;146;53.448;10.228;2023-02-01T03:08:00;5.60;1.00
318;DHT22;146;53.448;10.228;2023-02-01T03:10:34;5.50;1.00
318;DHT22;146;53.448;10.228;2023-02-01T03:13:05;5.40;1.00
318;DHT22;146;53.448;10.228;2023-02-01T03:15:37;5.40;1.00
318;DHT22;146;53.448;10.228;2023-02-01T03:18:16;5.40;1.00
318;DHT22;146;53.448;10.228;2023-02-01T03:20:46;5.50;1.00
318;DHT22;146;53.448;10.228;2023-02-01T03:23:19;5.50;1.00
318;DHT22;146;53.448;10.228;2023-02-01T03:25:48;5.50;1.00
318;DHT22;146;53.448;10.228;2023-02-01T03:28:17;5.40;1.00
318;DHT22;146;53.448;10.228;2023-02-01T03:30:48;5.40;1.00
318;DHT22;146;53.448;10.228;2023-02-01T03:33:17;5.40;1.00
318;DHT22;146;53.448;10.228;2023-02-01T03:35:56;5.30;1.00
318;DHT22;146;53.448;10.228;2023-02-01T03:38:30;5.30;1.00
318;DHT22;146;53.448;10.228;2023-02-01T03:41:03;5.20;1.00
318;DHT22;146;53.448;10.228;2023-02-01T03:43:35;5.00;1.00
318;DHT22;146;53.448;10.228;2023-02-01T03:46:11;4.90;1.00
318;DHT22;146;53.448;10.228;2023-02-01T03:48:39;4.70;1.80
318;DHT22;146;53.448;10.228;2023-02-01T03:51:07;4.70;2.60
318;DHT22;146;53.448;10.228;2023-02-01T03:53:37;4.60;3.60
318;DHT22;146;53.448;10.228;2023-02-01T03:56:05;4.60;4.20
318;DHT22;146;53.448;10.228;2023-02-01T03:58:32;4.40;4.10
318;DHT22;146;53.448;10.228;2023-02-01T04:01:00;4.20;3.80
318;DHT22;146;53.448;10.228;2023-02-01T04:03:27;4.10;4.30
318;DHT22;146;53.448;10.228;2023-02-01T04:05:54;4.10;4.70
318;DHT22;146;53.448;10.228;2023-02-01T04:08:22;4.10;5.10
318;DHT22;146;53.448;10.228;2023-02-01T04:10:50;4.10;5.80
318;DHT22;146;53.448;10.228;2023-02-01T04:13:17;4.20;6.30
318;DHT22;146;53.448;10.228;2023-02-01T04:15:44;4.20;6.60
318;DHT22;146;53.448;10.228;2023-02-01T04:18:11;4.30;6.80
318;DHT22;146;53.448;10.228;2023-02-01T04:20:38;4.40;6.80
318;DHT22;146;53.448;10.228;2023-02-01T04:23:05;4.30;6.70
318;DHT22;146;53.448;10.228;2023-02-01T04:25:32;4.30;6.70
318;DHT22;146;53.448;10.228;2023-02-01T04:28:00;4.30;6.50
318;DHT22;146;53.448;10.228;2023-02-01T04:30:27;4.30;6.20
318;DHT22;146;53.448;10.228;2023-02-01T04:32:54;4.40;6.00
318;DHT22;146;53.448;10.228;2023-02-01T04:35:21;4.40;5.50
318;DHT22;146;53.448;10.228;2023-02-01T04:37:48;4.40;5.00
318;DHT22;146;53.448;10.228;2023-02-01T04:40:15;4.40;4.40
318;DHT22;146;53.448;10.228;2023-02-01T04:42:42;4.40;3.70
318;DHT22;146;53.448;10.228;2023-02-01T04:45:10;4.60;3.50
318;DHT22;146;53.448;10.228;2023-02-01T04:47:37;4.50;2.70
318;DHT22;146;53.448;10.228;2023-02-01T04:50:05;4.50;2.20
318;DHT22;146;53.448;10.228;2023-02-01T04:52:33;4.60;1.90
318;DHT22;146;53.448;10.228;2023-02-01T04:55:00;4.60;1.60
318;DHT22;146;53.448;10.228;2023-02-01T04:57:28;4.60;1.60
318;DHT22;146;53.448;10.228;2023-02-01T04:59:55;4.60;1.90
318;DHT22;146;53.448;10.228;2023-02-01T05:02:23;4.50;1.80
318;DHT22;146;53.448;10.228;2023-02-01T05:04:50;4.60;2.20
318;DHT22;146;53.448;10.228;2023-02-01T05:07:17;4.40;2.40
318;DHT22;146;53.448;10.228;2023-02-01T05:09:43;4.40;2.80
318;DHT22;146;53.448;10.228;2023-02-01T05:12:10;4.40;3.40
318;DHT22;146;53.448;10.228;2023-02-01T05:14:51;4.30;3.80
318;DHT22;146;53.448;10.228;2023-02-01T05:17:18;4.30;4.20
318;DHT22;146;53.448;10.228;2023-02-01T05:19:46;4.30;4.30
318;DHT22;146;53.448;10.228;2023-02-01T05:22:13;4.20;4.60
318;DHT22;146;53.448;10.228;2023-02-01T05:24:39;4.20;4.80
318;DHT22;146;53.448;10.228;2023-02-01T05:27:06;4.10;5.00
318;DHT22;146;53.448;10.228;2023-02-01T05:29:33;3.90;4.50
318;DHT22;146;53.448;10.228;2023-02-01T05:32:00;3.70;4.20
318;DHT22;146;53.448;10.228;2023-02-01T05:34:27;3.50;4.20
318;DHT22;146;53.448;10.228;2023-02-01T05:36:55;3.30;4.20
318;DHT22;146;53.448;10.228;2023-02-01T05:39:22;3.20;4.00
318;DHT22;146;53.448;10.228;2023-02-01T05:41:49;2.90;3.70
318;DHT22;146;53.448;10.228;2023-02-01T05:44:16;2.80;4.10
318;DHT22;146;53.448;10.228;2023-02-01T05:46:42;2.80;4.50
318;DHT22;146;53.448;10.228;2023-02-01T05:49:09;2.80;4.70
318;DHT22;146;53.448;10.228;2023-02-01T05:51:36;2.70;4.70
318;DHT22;146;53.448;10.228;2023-02-01T05:54:04;2.70;4.70
318;DHT22;146;53.448;10.228;2023-02-01T05:56:31;2.50;4.60
318;DHT22;146;53.448;10.228;2023-02-01T05:58:58;2.60;4.80
318;DHT22;146;53.448;10.228;2023-02-01T06:01:25;2.50;4.70
318;DHT22;146;53.448;10.228;2023-02-01T06:03:51;2.50;4.70
318;DHT22;146;53.448;10.228;2023-02-01T06:06:18;2.40;5.00
318;DHT22;146;53.448;10.228;2023-02-01T06:08:45;2.50;5.50
318;DHT22;146;53.448;10.228;2023-02-01T06:11:13;2.50;5.80
318;DHT22;146;53.448;10.228;2023-02-01T06:13:40;2.50;5.90
318;DHT22;146;53.448;10.228;2023-02-01T06:16:08;2.50;6.20
318;DHT22;146;53.448;10.228;2023-02-01T06:18:35;2.60;6.60
318;DHT22;146;53.448;10.228;2023-02-01T06:21:02;2.70;6.70
318;DHT22;146;53.448;10.228;2023-02-01T06:23:29;2.70;6.70
318;DHT22;146;53.448;10.228;2023-02-01T06:26:01;2.80;6.80
318;DHT22;146;53.448;10.228;2023-02-01T06:28:30;2.80;6.90
318;DHT22;146;53.448;10.228;2023-02-01T06:30:57;2.90;6.90
318;DHT22;146;53.448;10.228;2023-02-01T06:33:24;3.00;6.90
318;DHT22;146;53.448;10.228;2023-02-01T06:35:56;3.00;6.90
318;DHT22;146;53.448;10.228;2023-02-01T06:38:23;3.10;7.00
318;DHT22;146;53.448;10.228;2023-02-01T06:40:52;3.20;7.10
318;DHT22;146;53.448;10.228;2023-02-01T06:43:19;3.20;7.00
318;DHT22;146;53.448;10.228;2023-02-01T06:45:47;3.30;7.10
318;DHT22;146;53.448;10.228;2023-02-01T06:48:14;3.30;7.00
318;DHT22;146;53.448;10.228;2023-02-01T06:50:41;3.30;6.80
318;DHT22;146;53.448;10.228;2023-02-01T06:53:08;3.40;6.90
318;DHT22;146;53.448;10.228;2023-02-01T06:55:34;3.40;6.90
318;DHT22;146;53.448;10.228;2023-02-01T06:58:01;3.50;7.10
318;DHT22;146;53.448;10.228;2023-02-01T07:00:28;3.50;7.20
318;DHT22;146;53.448;10.228;2023-02-01T07:02:57;3.60;7.30
318;DHT22;146;53.448;10.228;2023-02-01T07:05:24;3.60;7.40
318;DHT22;146;53.448;10.228;2023-02-01T07:07:51;3.70;7.60
318;DHT22;146;53.448;10.228;2023-02-01T07:10:18;3.70;7.60
318;DHT22;146;53.448;10.228;2023-02-01T07:12:45;3.70;7.80
318;DHT22;146;53.448;10.228;2023-02-01T07:15:11;3.80;7.90
318;DHT22;146;53.448;10.228;2023-02-01T07:17:38;3.90;8.00
318;DHT22;146;53.448;10.228;2023-02-01T07:20:08;3.90;8.00
318;DHT22;146;53.448;10.228;2023-02-01T07:22:38;3.90;8.00
318;DHT22;146;53.448;10.228;2023-02-01T07:25:08;4.00;8.00
318;DHT22;146;53.448;10.228;2023-02-01T07:27:35;4.00;8.10
318;DHT22;146;53.448;10.228;2023-02-01T07:30:04;4.10;8.00
318;DHT22;146;53.448;10.228;2023-02-01T07:32:31;4.10;7.90
318;DHT22;146;53.448;10.228;2023-02-01T07:35:00;4.10;7.50
318;DHT22;146;53.448;10.228;2023-02-01T07:37:31;4.10;7.40
318;DHT22;146;53.448;10.228;2023-02-01T07:40:03;4.20;7.10
318;DHT22;146;53.448;10.228;2023-02-01T07:42:30;4.20;6.90
318;DHT22;146;53.448;10.228;2023-02-01T07:45:00;4.20;7.00
318;DHT22;146;53.448;10.228;2023-02-01T07:51:50;4.30;7.00
318;DHT22;146;53.448;10.228;2023-02-01T07:55:29;4.20;6.80
318;DHT22;146;53.448;10.228;2023-02-01T08:02:21;4.40;6.70
318;DHT22;146;53.448;10.228;2023-02-01T08:05:40;4.50;6.60
318;DHT22;146;53.448;10.228;2023-02-01T08:08:23;4.50;6.40
318;DHT22;146;53.448;10.228;2023-02-01T08:11:48;4.70;6.50
318;DHT22;146;53.448;10.228;2023-02-01T08:18:17;4.80;5.90
318;DHT22;146;53.448;10.228;2023-02-01T08:21:14;4.90;5.50
318;DHT22;146;53.448;10.228;2023-02-01T08:23:49;4.80;4.70
318;DHT22;146;53.448;10.228;2023-02-01T08:29:49;4.90;3.20
318;DHT22;146;53.448;10.228;2023-02-01T08:32:32;4.90;2.70
318;DHT22;146;53.448;10.228;2023-02-01T08:35:09;5.00;2.90
318;DHT22;146;53.448;10.228;2023-02-01T08:37:43;5.10;3.10
318;DHT22;146;53.448;10.228;2023-02-01T08:40:39;5.20;2.50
318;DHT22;146;53.448;10.228;2023-02-01T08:43:15;5.20;1.90
318;DHT22;146;53.448;10.228;2023-02-01T08:45:48;5.30;1.70
318;DHT22;146;53.448;10.228;2023-02-01T08:48:18;5.40;1.00
318;DHT22;146;53.448;10.228;2023-02-01T08:51:06;5.50;1.00
318;DHT22;146;53.448;10.228;2023-02-01T08:53:54;5.50;1.00
318;DHT22;146;53.448;10.228;2023-02-01T08:56:49;5.70;1.00
318;DHT22;146;53.448;10.228;2023-02-01T08:59:23;5.70;1.00
318;DHT22;146;53.448;10.228;2023-02-01T09:01:52;5.70;1.00
318;DHT22;146;53.448;10.228;2023-02-01T09:10:22;5.80;1.00
318;DHT22;146;53.448;10.228;2023-02-01T09:12:49;5.80;1.00
318;DHT22;146;53.448;10.228;2023-02-01T09:15:15;5.70;1.00
318;DHT22;146;53.448;10.228;2023-02-01T09:17:43;5.80;1.00
318;DHT22;146;53.448;10.228;2023-02-01T09:20:11;5.90;1.00
318;DHT22;146;53.448;10.228;2023-02-01T09:22:38;5.90;1.00
318;DHT22;146;53.448;10.228;2023-02-01T09:25:07;6.00;1.00
318;DHT22;146;53.448;10.228;2023-02-01T09:27:34;5.90;1.00
318;DHT22;146;53.448;10.228;2023-02-01T09:30:01;5.80;1.00
318;DHT22;146;53.448;10.228;2023-02-01T09:32:27;5.80;1.00
318;DHT22;146;53.448;10.228;2023-02-01T09:34:56;5.90;1.00
318;DHT22;146;53.448;10.228;2023-02-01T09:37:22;6.00;1.00
318;DHT22;146;53.448;10.228;2023-02-01T09:39:49;5.80;1.00
318;DHT22;146;53.448;10.228;2023-02-01T09:42:44;5.60;1.00
318;DHT22;146;53.448;10.228;2023-02-01T09:45:20;5.50;1.00
318;DHT22;146;53.448;10.228;2023-02-01T09:47:52;5.50;1.00
318;DHT22;146;53.448;10.228;2023-02-01T09:50:28;5.40;1.40
318;DHT22;146;53.448;10.228;2023-02-01T09:53:00;5.40;1.90
318;DHT22;146;53.448;10.228;2023-02-01T09:55:34;5.40;2.60
318;DHT22;146;53.448;10.228;2023-02-01T09:58:07;5.50;3.40
318;DHT22;146;53.448;10.228;2023-02-01T10:00:37;5.60;3.60
318;DHT22;146;53.448;10.228;2023-02-01T10:03:05;5.60;2.50
318;DHT22;146;53.448;10.228;2023-02-01T10:05:49;5.60;1.00
318;DHT22;146;53.448;10.228;2023-02-01T10:08:28;5.70;1.00
318;DHT22;146;53.448;10.228;2023-02-01T10:11:05;5.90;1.00
318;DHT22;146;53.448;10.228;2023-02-01T10:13:46;5.90;1.00
318;DHT22;146;53.448;10.228;2023-02-01T10:16:26;6.10;1.00
318;DHT22;146;53.448;10.228;2023-02-01T10:19:16;6.00;1.00
318;DHT22;146;53.448;10.228;2023-02-01T10:21:53;6.20;1.00
318;DHT22;146;53.448;10.228;2023-02-01T10:24:33;6.20;1.00
318;DHT22;146;53.448;10.228;2023-02-01T10:27:06;6.30;1.00
318;DHT22;146;53.448;10.228;2023-02-01T10:29:38;6.20;1.00
318;DHT22;146;53.448;10.228;2023-02-01T10:32:12;6.20;1.00
318;DHT22;146;53.448;10.228;2023-02-01T10:34:39;6.10;1.00
318;DHT22;146;53.448;10.228;2023-02-01T10:37:17;6.10;1.00
318;DHT22;146;53.448;10.228;2023-02-01T10:39:48;6.20;1.00
318;DHT22;146;53.448;10.228;2023-02-01T10:42:19;6.20;1.00
318;DHT22;146;53.448;10.228;2023-02-01T10:44:47;6.20;1.00
318;DHT22;146;53.448;10.228;2023-02-01T10:47:15;6.10;1.00
318;DHT22;146;53.448;10.228;2023-02-01T10:49:47;6.00;1.00
318;DHT22;146;53.448;10.228;2023-02-01T10:52:20;6.00;1.00
318;DHT22;146;53.448;10.228;2023-02-01T10:54:53;5.90;1.00
318;DHT22;146;53.448;10.228;2023-02-01T10:57:21;5.90;1.00
318;DHT22;146;53.448;10.228;2023-02-01T10:59:50;5.90;1.00
318;DHT22;146;53.448;10.228;2023-02-01T11:02:22;5.90;1.00
318;DHT22;146;53.448;10.228;2023-02-01T11:05:09;5.90;1.00
318;DHT22;146;53.448;10.228;2023-02-01T11:07:39;5.90;1.30
318;DHT22;146;53.448;10.228;2023-02-01T11:10:34;5.90;1.40
318;DHT22;146;53.448;10.228;2023-02-01T11:13:02;5.90;1.20
318;DHT22;146;53.448;10.228;2023-02-01T11:15:29;5.90;1.00
318;DHT22;146;53.448;10.228;2023-02-01T11:18:16;5.90;1.00
318;DHT22;146;53.448;10.228;2023-02-01T11:20:44;5.90;1.00
318;DHT22;146;53.448;10.228;2023-02-01T11:23:18;5.80;1.00
318;DHT22;146;53.448;10.228;2023-02-01T11:25:49;5.70;1.00
318;DHT22;146;53.448;10.228;2023-02-01T11:28:18;5.60;1.00
318;DHT22;146;53.448;10.228;2023-02-01T11:30:48;5.60;1.00
318;DHT22;146;53.448;10.228;2023-02-01T11:33:16;5.60;1.00
318;DHT22;146;53.448;10.228;2023-02-01T11:35:44;5.70;1.00
318;DHT22;146;53.448;10.228;2023-02-01T11:38:20;5.70;1.30
318;DHT22;146;53.448;10.228;2023-02-01T11:40:47;5.80;1.60
318;DHT22;146;53.448;10.228;2023-02-01T11:43:17;5.90;2.00
318;DHT22;146;53.448;10.228;2023-02-01T11:45:54;5.90;2.30
318;DHT22;146;53.448;10.228;2023-02-01T11:48:23;5.90;2.10
318;DHT22;146;53.448;10.228;2023-02-01T11:50:58;6.00;1.30
318;DHT22;146;53.448;10.228;2023-02-01T11:53:38;6.10;1.00
318;DHT22;146;53.448;10.228;2023-02-01T11:56:14;5.90;1.00
318;DHT22;146;53.448;10.228;2023-02-01T11:59:01;5.90;1.00
318;DHT22;146;53.448;10.228;2023-02-01T12:01:46;5.70;1.00
318;DHT22;146;53.448;10.228;2023-02-01T12:07:16;5.50;1.00
318;DHT22;146;53.448;10.228;2023-02-01T12:09:56;5.50;2.00
318;DHT22;146;53.448;10.228;2023-02-01T12:12:38;5.40;2.60
318;DHT22;146;53.448;10.228;2023-02-01T12:15:26;5.40;3.00
318;DHT22;146;53.448;10.228;2023-02-01T12:18:11;5.30;2.80
318;DHT22;146;53.448;10.228;2023-02-01T12:20:59;5.20;1.00
318;DHT22;146;53.448;10.228;2023-02-01T12:23:40;5.20;1.00
318;DHT22;146;53.448;10.228;2023-02-01T12:26:38;5.20;1.00
318;DHT22;146;53.448;10.228;2023-02-01T12:29:16;5.10;2.00
318;DHT22;146;53.448;10.228;2023-02-01T12:31:56;5.20;2.90
318;DHT22;146;53.448;10.228;2023-02-01T12:34:44;5.30;3.70
318;DHT22;146;53.448;10.228;2023-02-01T12:37:30;5.30;4.10
318;DHT22;146;53.448;10.228;2023-02-01T12:40:06;5.30;4.40
318;DHT22;146;53.448;10.228;2023-02-01T12:42:38;5.30;4.20
318;DHT22;146;53.448;10.228;2023-02-01T12:45:11;5.30;4.30
318;DHT22;146;53.448;10.228;2023-02-01T12:47:42;5.20;4.00
318;DHT22;146;53.448;10.228;2023-02-01T12:50:16;5.20;4.00
318;DHT22;146;53.448;10.228;2023-02-01T12:52:48;5.20;4.10
318;DHT22;146;53.448;10.228;2023-02-01T12:55:22;5.00;4.20
318;DHT22;146;53.448;10.228;2023-02-01T12:57:53;4.80;3.90
318;DHT22;146;53.448;10.228;2023-02-01T13:00:27;4.60;2.80
318;DHT22;146;53.448;10.228;2023-02-01T13:03:05;4.50;2.70
318;DHT22;146;53.448;10.228;2023-02-01T13:05:46;4.40;3.20
318;DHT22;146;53.448;10.228;2023-02-01T13:08:20;4.40;3.70
318;DHT22;146;53.448;10.228;2023-02-01T13:10:54;4.30;3.80
318;DHT22;146;53.448;10.228;2023-02-01T13:13:31;4.20;4.00
318;DHT22;146;53.448;10.228;2023-02-01T13:16:05;4.10;4.00
318;DHT22;146;53.448;10.228;2023-02-01T13:18:35;4.00;4.10
318;DHT22;146;53.448;10.228;2023-02-01T13:21:06;4.00;4.20
318;DHT22;146;53.448;10.228;2023-02-01T13:23:36;4.00;4.30
318;DHT22;146;53.448;10.228;2023-02-01T13:26:04;3.90;4.20
318;DHT22;146;53.448;10.228;2023-02-01T13:28:36;4.00;4.30
318;DHT22;146;53.448;10.228;2023-02-01T13:37:23;4.10;4.70
318;DHT22;146;53.448;10.228;2023-02-01T13:40:05;4.20;5.00
318;DHT22;146;53.448;10.228;2023-02-01T13:42:44;4.30;4.60
318;DHT22;146;53.448;10.228;2023-02-01T13:45:16;4.40;4.20
318;DHT22;146;53.448;10.228;2023-02-01T13:47:47;4.30;3.30
318;DHT22;146;53.448;10.228;2023-02-01T13:50:21;4.30;3.30
318;DHT22;146;53.448;10.228;2023-02-01T13:52:53;4.30;3.40
318;DHT22;146;53.448;10.228;2023-02-01T13:55:31;4.30;3.20
318;DHT22;146;53.448;10.228;2023-02-01T14:04:50;4.40;3.10
318;DHT22;146;53.448;10.228;2023-02-01T14:50:55;5.00;1.00
318;DHT22;146;53.448;10.228;2023-02-01T14:54:03;4.90;1.00
318;DHT22;146;53.448;10.228;2023-02-01T15:01:03;4.40;2.60
318;DHT22;146;53.448;10.228;2023-02-01T15:08:24;4.10;4.30
318;DHT22;146;53.448;10.228;2023-02-01T15:10:51;4.00;4.90
318;DHT22;146;53.448;10.228;2023-02-01T15:17:16;3.90;5.10
318;DHT22;146;53.448;10.228;2023-02-01T15:23:32;3.90;5.50
318;DHT22;146;53.448;10.228;2023-02-01T15:28:50;4.10;5.60
318;DHT22;146;53.448;10.228;2023-02-01T15:31:32;4.20;5.20
318;DHT22;146;53.448;10.228;2023-02-01T15:37:44;4.20;4.30
318;DHT22;146;53.448;10.228;2023-02-01T15:40:24;4.20;4.10
318;DHT22;146;53.448;10.228;2023-02-01T15:43:19;4.20;3.80
318;DHT22;146;53.448;10.228;2023-02-01T15:45:48;4.10;3.40
318;DHT22;146;53.448;10.228;2023-02-01T15:49:30;4.10;3.00
318;DHT22;146;53.448;10.228;2023-02-01T15:51:57;3.90;2.80
318;DHT22;146;53.448;10.228;2023-02-01T15:58:16;3.80;3.40
318;DHT22;146;53.448;10.228;2023-02-01T16:03:20;3.80;4.00
318;DHT22;146;53.448;10.228;2023-02-01T16:05:34;3.90;4.40
318;DHT22;146;53.448;10.228;2023-02-01T16:08:23;4.00;4.30
318;DHT22;146;53.448;10.228;2023-02-01T16:11:12;4.00;4.30
318;DHT22;146;53.448;10.228;2023-02-01T16:14:22;4.10;4.20
318;DHT22;146;53.448;10.228;2023-02-01T16:17:02;4.10;4.10
318;DHT22;146;53.448;10.228;2023-02-01T16:23:39;4.10;2.80
318;DHT22;146;53.448;10.228;2023-02-01T16:49:52;4.20;4.60
318;DHT22;146;53.448;10.228;2023-02-01T16:52:21;4.20;4.70
318;DHT22;146;53.448;10.228;2023-02-01T16:54:48;4.30;4.70
318;DHT22;146;53.448;10.228;2023-02-01T16:57:17;4.30;4.60
318;DHT22;146;53.448;10.228;2023-02-01T16:59:45;4.30;4.50
318;DHT22;146;53.448;10.228;2023-02-01T17:02:13;4.30;4.40
318;DHT22;146;53.448;10.228;2023-02-01T17:15:10;4.40;3.60
318;DHT22;146;53.448;10.228;2023-02-01T17:17:38;4.40;3.80
318;DHT22;146;53.448;10.228;2023-02-01T17:20:20;4.40;4.00
318;DHT22;146;53.448;10.228;2023-02-01T17:22:47;4.60;3.90
318;DHT22;146;53.448;10.228;2023-02-01T17:25:14;4.50;3.20
318;DHT22;146;53.448;10.228;2023-02-01T17:27:42;4.60;3.00
318;DHT22;146;53.448;10.228;2023-02-01T17:30:13;4.70;2.80
318;DHT22;146;53.448;10.228;2023-02-01T17:32:41;4.70;2.50
318;DHT22;146;53.448;10.228;2023-02-01T17:35:17;4.70;1.00
318;DHT22;146;53.448;10.228;2023-02-01T17:37:45;4.70;1.00
318;DHT22;146;53.448;10.228;2023-02-01T17:40:12;4.70;1.00
318;DHT22;146;53.448;10.228;2023-02-01T17:42:39;4.80;1.00
318;DHT22;146;53.448;10.228;2023-02-01T17:45:21;4.90;1.00
318;DHT22;146;53.448;10.228;2023-02-01T17:47:49;4.90;1.00
318;DHT22;146;53.448;10.228;2023-02-01T17:50:16;5.00;1.00
318;DHT22;146;53.448;10.228;2023-02-01T17:52:43;5.00;1.00
318;DHT22;146;53.448;10.228;2023-02-01T17:55:15;5.00;1.00
318;DHT22;146;53.448;10.228;2023-02-01T17:57:43;5.00;1.00
318;DHT22;146;53.448;10.228;2023-02-01T18:00:13;5.00;1.00
318;DHT22;146;53.448;10.228;2023-02-01T18:02:40;5.10;1.00
318;DHT22;146;53.448;10.228;2023-02-01T18:05:14;5.10;1.00
318;DHT22;146;53.448;10.228;2023-02-01T18:07:43;5.10;1.00
318;DHT22;146;53.448;10.228;2023-02-01T18:10:10;5.10;1.00
318;DHT22;146;53.448;10.228;2023-02-01T18:12:38;5.10;1.00
318;DHT22;146;53.448;10.228;2023-02-01T18:15:15;5.00;1.00
318;DHT22;146;53.448;10.228;2023-02-01T18:17:42;4.90;1.00
318;DHT22;146;53.448;10.228;2023-02-01T18:20:13;4.90;1.00
318;DHT22;146;53.448;10.228;2023-02-01T18:22:41;4.90;1.00
318;DHT22;146;53.448;10.228;2023-02-01T18:25:19;4.90;1.00
318;DHT22;146;53.448;10.228;2023-02-01T18:27:47;4.90;1.00
318;DHT22;146;53.448;10.228;2023-02-01T18:30:16;5.00;1.00
318;DHT22;146;53.448;10.228;2023-02-01T18:32:43;5.00;1.00
318;DHT22;146;53.448;10.228;2023-02-01T18:35:22;5.00;1.00
318;DHT22;146;53.448;10.228;2023-02-01T18:37:50;5.10;1.00
318;DHT22;146;53.448;10.228;2023-02-01T18:40:20;5.10;1.00
318;DHT22;146;53.448;10.228;2023-02-01T18:42:47;5.10;1.00
318;DHT22;146;53.448;10.228;2023-02-01T18:45:21;4.90;1.00
318;DHT22;146;53.448;10.228;2023-02-01T18:47:52;4.90;1.00
318;DHT22;146;53.448;10.228;2023-02-01T18:50:25;4.70;1.00
318;DHT22;146;53.448;10.228;2023-02-01T18:52:53;4.80;1.00
318;DHT22;146;53.448;10.228;2023-02-01T18:55:23;4.70;1.00
318;DHT22;146;53.448;10.228;2023-02-01T18:57:50;4.70;1.00
318;DHT22;146;53.448;10.228;2023-02-01T19:00:20;4.70;1.00
318;DHT22;146;53.448;10.228;2023-02-01T19:02:47;4.60;1.00
318;DHT22;146;53.448;10.228;2023-02-01T19:05:15;4.60;1.00
318;DHT22;146;53.448;10.228;2023-02-01T19:07:43;4.60;1.00
318;DHT22;146;53.448;10.228;2023-02-01T19:10:12;4.60;1.00
318;DHT22;146;53.448;10.228;2023-02-01T19:12:39;4.60;1.00
318;DHT22;146;53.448;10.228;2023-02-01T19:15:08;4.60;1.00
318;DHT22;146;53.448;10.228;2023-02-01T19:17:42;4.60;1.00
318;DHT22;146;53.448;10.228;2023-02-01T19:20:11;4.50;1.00
318;DHT22;146;53.448;10.228;2023-02-01T19:22:38;4.50;1.00
318;DHT22;146;53.448;10.228;2023-02-01T19:25:06;4.50;1.00
318;DHT22;146;53.448;10.228;2023-02-01T19:27:34;4.50;1.00
318;DHT22;146;53.448;10.228;2023-02-01T19:30:00;4.50;1.00
318;DHT22;146;53.448;10.228;2023-02-01T19:32:27;4.50;1.00
318;DHT22;146;53.448;10.228;2023-02-01T19:34:57;4.50;1.00
318;DHT22;146;53.448;10.228;2023-02-01T19:37:24;4.60;1.00
318;DHT22;146;53.448;10.228;2023-02-01T19:39:50;4.60;1.00
318;DHT22;146;53.448;10.228;2023-02-01T19:42:17;4.70;1.00
318;DHT22;146;53.448;10.228;2023-02-01T19:44:44;4.70;1.00
318;DHT22;146;53.448;10.228;2023-02-01T19:47:11;4.90;1.00
318;DHT22;146;53.448;10.228;2023-02-01T19:49:38;5.00;1.00
318;DHT22;146;53.448;10.228;2023-02-01T19:52:06;5.10;1.00
318;DHT22;146;53.448;10.228;2023-02-01T19:54:33;5.20;1.00
318;DHT22;146;53.448;10.228;2023-02-01T19:57:00;5.10;1.00
318;DHT22;146;53.448;10.228;2023-02-01T19:59:27;5.10;1.00
318;DHT22;146;53.448;10.228;2023-02-01T20:01:54;5.00;1.00
318;DHT22;146;53.448;10.228;2023-02-01T20:04:21;4.90;1.00
318;DHT22;146;53.448;10.228;2023-02-01T20:06:48;4.50;1.00